Time;durP1;ratioP1;P1;durP2;ratioP2;P2;SDS_P1;SDS_P2;PMS_P1;PMS_P2;Temp;Humidity;BMP_temperature;BMP_pressure;BME280_temperature;BME280_humidity;BME280_pressure;Samples;Min_cycle;Max_cycle;Signal;HPM_P1;HPM_P2
2023/04/21 00:00:49;;;;;;;58.88;35.20;;;7.00;99.90;;;;;;5010835;28;20413;-63
2023/04/21 00:03:16;;;;;;;58.90;36.58;;;6.90;99.90;;;;;;5010557;28;20973;-63
2023/04/21 00:05:43;;;;;;;59.57;36.40;;;6.90;99.90;;;;;;5010655;28;20949;-64
2023/04/21 00:08:11;;;;;;;58.72;37.13;;;6.90;99.90;;;;;;5010397;28;20424;-63
2023/04/21 00:10:37;;;;;;;54.20;35.05;;;7.10;99.90;;;;;;5010603;28;20902;-63
2023/04/21 00:13:04;;;;;;;58.78;37.05;;;7.10;99.90;;;;;;5010641;28;20413;-64
2023/04/21 00:15:31;;;;;;;57.78;35.53;;;7.10;99.90;;;;;;5010527;28;20416;-64
2023/04/21 00:17:57;;;;;;;61.20;37.05;;;7.20;99.90;;;;;;5010530;28;20409;-64
2023/04/21 00:20:25;;;;;;;61.90;37.08;;;7.10;99.90;;;;;;5014003;28;20854;-64
2023/04/21 00:22:52;;;;;;;63.78;38.42;;;7.10;99.90;;;;;;5011541;28;20424;-65
2023/04/21 00:25:20;;;;;;;66.72;37.95;;;7.10;99.90;;;;;;5010575;28;20405;-64
2023/04/21 00:27:47;;;;;;;64.57;36.88;;;7.10;99.90;;;;;;5010454;28;20431;-65
2023/04/21 00:30:13;;;;;;;62.92;37.40;;;7.10;99.90;;;;;;5010871;28;20421;-64
2023/04/21 00:32:40;;;;;;;66.03;38.55;;;7.20;99.90;;;;;;5010746;28;20463;-64
2023/04/21 00:35:07;;;;;;;68.88;39.97;;;7.10;99.90;;;;;;5006809;28;20413;-64
2023/04/21 00:37:34;;;;;;;69.55;40.88;;;7.10;99.90;;;;;;5010612;28;20412;-64
2023/04/21 00:40:01;;;;;;;70.57;39.65;;;7.00;99.90;;;;;;5010735;28;20502;-64
2023/04/21 00:42:29;;;;;;;73.22;41.00;;;7.00;99.90;;;;;;5010374;28;20962;-64
2023/04/21 00:44:56;;;;;;;76.18;41.22;;;6.90;99.90;;;;;;5010694;28;20416;-64
2023/04/21 00:47:23;;;;;;;76.53;42.80;;;6.90;99.90;;;;;;5006715;28;20796;-64
2023/04/21 00:49:50;;;;;;;78.30;42.50;;;7.00;99.90;;;;;;5011475;28;20417;-64
2023/04/21 00:52:18;;;;;;;76.38;41.85;;;7.00;99.90;;;;;;5014581;28;20470;-64
2023/04/21 00:54:44;;;;;;;75.20;41.10;;;7.00;99.90;;;;;;5010329;28;20466;-64
2023/04/21 00:57:11;;;;;;;77.13;41.42;;;6.90;99.90;;;;;;5010205;28;20416;-64
2023/04/21 00:59:39;;;;;;;75.03;41.03;;;6.90;99.90;;;;;;5010332;28;20448;-64
2023/04/21 01:02:06;;;;;;;78.27;41.13;;;6.90;99.90;;;;;;5010230;28;20518;-64
2023/04/21 01:04:37;;;;;;;77.80;42.70;;;7.00;99.90;;;;;;5010080;28;20413;-64
2023/04/21 01:07:04;;;;;;;80.32;41.67;;;7.00;99.90;;;;;;5010084;28;20420;-64
2023/04/21 01:09:31;;;;;;;82.88;42.95;;;7.00;99.90;;;;;;5012492;28;20490;-64
2023/04/21 01:12:03;;;;;;;80.22;42.67;;;7.00;99.90;;;;;;5014029;28;20421;-63
2023/04/21 01:14:30;;;;;;;81.70;42.72;;;7.00;99.90;;;;;;5013695;28;20487;-64
2023/04/21 01:16:58;;;;;;;80.72;42.75;;;7.00;99.90;;;;;;5013282;28;20408;-63
2023/04/21 01:19:26;;;;;;;83.25;43.42;;;7.00;99.90;;;;;;5013663;28;20899;-63
2023/04/21 01:21:56;;;;;;;87.70;44.38;;;7.00;99.90;;;;;;5019639;28;20425;-64
2023/04/21 01:24:23;;;;;;;85.63;44.95;;;7.00;99.90;;;;;;5013662;28;20447;-64
2023/04/21 01:26:49;;;;;;;88.15;43.35;;;6.90;99.90;;;;;;5013149;28;20949;-63
2023/04/21 01:29:16;;;;;;;91.13;43.85;;;6.90;99.90;;;;;;5013426;28;20424;-64
2023/04/21 01:31:46;;;;;;;88.00;44.85;;;6.90;99.90;;;;;;5013184;28;20439;-64
2023/04/21 01:34:13;;;;;;;83.00;42.42;;;6.90;99.90;;;;;;5013203;28;20829;-62
2023/04/21 01:36:39;;;;;;;87.32;43.53;;;6.90;99.90;;;;;;5013104;28;20471;-63
2023/04/21 01:39:07;;;;;;;83.68;43.13;;;6.90;99.90;;;;;;5013437;28;20420;-64
2023/04/21 01:41:34;;;;;;;;;;;6.90;99.90;;;;;;5013825;28;20791;-63
2023/04/21 01:44:01;;;;;;;;;;;7.00;99.90;;;;;;5011448;28;19922;-63
2023/04/21 01:46:27;;;;;;;90.70;43.75;;;7.10;99.90;;;;;;5013086;28;20758;-63
2023/04/21 01:48:54;;;;;;;86.82;44.33;;;7.00;99.90;;;;;;5012548;28;20482;-64
2023/04/21 01:51:21;;;;;;;87.47;44.83;;;6.90;99.90;;;;;;5019868;28;20415;-64
2023/04/21 01:53:47;;;;;;;89.80;44.40;;;7.00;99.90;;;;;;5013243;28;20413;-63
2023/04/21 01:56:15;;;;;;;94.13;45.43;;;7.00;99.90;;;;;;5008999;28;20957;-64
2023/04/21 01:58:42;;;;;;;97.70;46.25;;;7.00;99.90;;;;;;5012703;28;20891;-64
2023/04/21 02:01:08;;;;;;;100.30;47.10;;;6.90;99.90;;;;;;5012724;28;20527;-64
2023/04/21 02:03:35;;;;;;;94.95;45.78;;;6.90;99.90;;;;;;5012603;28;20770;-63
2023/04/21 02:06:02;;;;;;;101.80;47.70;;;7.00;99.90;;;;;;5012684;28;20822;-64
2023/04/21 02:08:29;;;;;;;;;;;6.90;99.90;;;;;;5010200;28;20443;-63
2023/04/21 02:10:55;;;;;;;;;;;6.90;99.90;;;;;;5014547;28;20780;-63
2023/04/21 02:13:23;;;;;;;;;;;6.90;99.90;;;;;;5014333;28;19926;-63
2023/04/21 02:15:50;;;;;;;;;;;6.90;99.90;;;;;;5014110;28;19926;-63
2023/04/21 02:18:16;;;;;;;;;;;6.90;99.90;;;;;;5013901;28;19929;-63
2023/04/21 02:20:43;;;;;;;;;;;6.90;99.90;;;;;;5017661;28;19925;-64
2023/04/21 02:23:09;;;;;;;;;;;7.00;99.90;;;;;;5016061;28;19929;-64
2023/04/21 02:25:36;;;;;;;;;;;6.90;99.90;;;;;;5015058;28;19926;-64
2023/04/21 02:28:02;;;;;;;;;;;6.90;99.90;;;;;;5013828;28;19925;-64
2023/04/21 02:30:30;;;;;;;99.45;47.33;;;6.90;99.90;;;;;;5014470;28;20428;-64
2023/04/21 02:32:57;;;;;;;96.55;47.72;;;7.00;99.90;;;;;;5013028;28;20424;-64
2023/04/21 02:35:24;;;;;;;86.35;44.65;;;7.00;99.90;;;;;;5012761;28;20421;-63
2023/04/21 02:37:51;;;;;;;83.25;43.45;;;7.20;99.90;;;;;;5011889;28;20424;-63
2023/04/21 02:40:17;;;;;;;90.90;44.92;;;7.10;99.90;;;;;;5012257;28;20412;-63
2023/04/21 02:42:44;;;;;;;88.72;45.95;;;7.00;99.90;;;;;;5011947;28;21066;-63
2023/04/21 02:45:11;;;;;;;89.85;45.78;;;7.10;99.90;;;;;;5008485;28;20413;-63
2023/04/21 02:47:39;;;;;;;88.72;44.45;;;7.10;99.90;;;;;;5011168;28;21238;-64
2023/04/21 02:50:06;;;;;;;;;;;7.10;99.90;;;;;;5015541;28;20802;-64
2023/04/21 02:52:35;;;;;;;;;;;7.10;99.90;;;;;;5014216;28;19922;-63
2023/04/21 02:55:02;;;;;;;;;;;7.30;99.90;;;;;;5013220;28;19988;-63
2023/04/21 02:57:28;;;;;;;;;;;7.30;99.90;;;;;;5013170;28;20147;-63
2023/04/21 02:59:55;;;;;;;;;;;7.40;99.90;;;;;;5013181;28;19921;-63
2023/04/21 03:02:21;;;;;;;;;;;7.30;99.90;;;;;;5013912;28;19922;-64
2023/04/21 03:04:49;;;;;;;;;;;7.40;99.90;;;;;;5013297;28;20339;-64
2023/04/21 03:07:16;;;;;;;;;;;7.50;99.90;;;;;;5013438;28;20914;-64
2023/04/21 03:09:42;;;;;;;81.10;43.20;;;7.50;99.90;;;;;;5011991;28;20601;-64
2023/04/21 03:12:09;;;;;;;;;;;7.40;99.90;;;;;;5012239;28;20420;-64
2023/04/21 03:14:35;;;;;;;;;;;7.40;99.90;;;;;;5012932;28;19921;-63
2023/04/21 03:17:02;;;;;;;;;;;7.20;99.90;;;;;;5013539;28;19928;-64
2023/04/21 03:19:29;;;;;;;;;;;7.30;99.90;;;;;;5014201;28;20380;-64
2023/04/21 03:21:57;;;;;;;;;;;7.40;99.90;;;;;;5011641;28;19975;-64
2023/04/21 03:24:23;;;;;;;;;;;7.40;99.90;;;;;;5011945;28;19921;-63
2023/04/21 03:26:50;;;;;;;;;;;7.50;99.90;;;;;;5011935;28;19967;-63
2023/04/21 03:29:16;;;;;;;;;;;7.60;99.90;;;;;;5012409;28;19929;-63
2023/04/21 03:31:43;;;;;;;;;;;7.70;99.90;;;;;;5007238;28;19968;-64
2023/04/21 03:34:09;;;;;;;;;;;7.60;99.90;;;;;;5013100;28;20404;-64
2023/04/21 03:36:35;;;;;;;;;;;7.70;99.90;;;;;;5013014;28;19925;-63
2023/04/21 03:39:03;;;;;;;;;;;7.80;99.90;;;;;;5012101;28;19921;-64
2023/04/21 03:41:30;;;;;;;;;;;7.70;99.90;;;;;;5011938;28;20295;-63
2023/04/21 03:43:56;;;;;;;;;;;7.80;99.90;;;;;;5012629;28;19995;-64
2023/04/21 03:46:23;;;;;;;;;;;7.80;99.90;;;;;;5012675;28;19967;-64
2023/04/21 03:48:49;;;;;;;;;;;7.70;99.90;;;;;;5012190;28;19922;-64
2023/04/21 03:51:16;;;;;;;;;;;7.90;99.90;;;;;;5018448;28;19921;-64
2023/04/21 03:53:42;;;;;;;;;;;8.00;99.90;;;;;;5012617;28;19952;-64
2023/04/21 03:56:10;;;;;;;;;;;8.00;99.90;;;;;;5012213;28;20299;-64
2023/04/21 03:58:37;;;;;;;;;;;7.90;99.90;;;;;;5009443;28;19991;-63
2023/04/21 04:01:04;;;;;;;;;;;7.70;99.90;;;;;;5012453;28;19967;-64
2023/04/21 04:03:31;;;;;;;;;;;7.80;99.90;;;;;;5012735;28;19968;-64
2023/04/21 04:05:57;;;;;;;;;;;7.80;99.90;;;;;;5012510;28;19921;-64
2023/04/21 04:08:24;;;;;;;;;;;7.90;99.90;;;;;;5012714;28;19945;-64
2023/04/21 04:10:50;;;;;;;;;;;8.00;99.90;;;;;;5012438;28;19927;-64
2023/04/21 04:13:18;;;;;;;;;;;7.90;99.90;;;;;;5012687;28;19921;-64
2023/04/21 04:15:45;;;;;;;;;;;7.90;99.90;;;;;;5012577;28;19922;-63
2023/04/21 04:18:11;;;;;;;;;;;8.00;99.90;;;;;;5012425;28;19925;-63
2023/04/21 04:20:37;;;;;;;;;;;8.00;99.90;;;;;;5018082;28;19975;-63
2023/04/21 04:23:04;;;;;;;;;;;8.00;99.90;;;;;;5012126;28;20384;-64
2023/04/21 04:25:32;;;;;;;;;;;8.10;99.90;;;;;;5012076;28;19979;-63
2023/04/21 04:27:58;;;;;;;;;;;8.20;99.90;;;;;;5012046;28;19921;-63
2023/04/21 04:30:27;;;;;;;;;;;8.20;99.90;;;;;;5012227;28;19922;-63
2023/04/21 04:32:54;;;;;;;;;;;8.00;99.90;;;;;;5012077;28;19922;-63
2023/04/21 04:35:20;;;;;;;;;;;8.00;99.90;;;;;;5012301;28;19921;-64
2023/04/21 04:37:47;;;;;;;;;;;8.00;99.90;;;;;;5012411;28;19944;-63
2023/04/21 04:40:14;;;;;;;62.07;39.27;;;8.10;99.90;;;;;;5014150;28;20415;-64
2023/04/21 04:42:41;;;;;;;63.33;38.97;;;8.20;99.90;;;;;;5010578;28;20448;-64
2023/04/21 04:45:10;;;;;;;67.40;41.60;;;8.20;99.90;;;;;;5013999;28;20424;-64
2023/04/21 04:47:38;;;;;;;65.90;40.97;;;8.10;99.90;;;;;;5014131;28;20479;-64
2023/04/21 04:50:05;;;;;;;67.97;41.55;;;8.10;99.90;;;;;;5015407;28;20436;-64
2023/04/21 04:52:32;;;;;;;67.10;42.33;;;8.00;99.90;;;;;;5006488;28;20496;-64
2023/04/21 04:54:58;;;;;;;65.88;40.17;;;8.00;99.90;;;;;;5017423;28;20826;-64
2023/04/21 04:57:25;;;;;;;62.25;38.83;;;8.10;99.90;;;;;;5014749;28;20420;-64
2023/04/21 04:59:54;;;;;;;64.03;39.53;;;8.20;99.90;;;;;;5013867;28;20412;-64
2023/04/21 05:02:22;;;;;;;77.85;43.33;;;8.20;99.90;;;;;;5013095;28;20421;-64
2023/04/21 05:04:50;;;;;;;88.93;46.10;;;8.00;99.90;;;;;;5013184;28;20870;-64
2023/04/21 05:07:17;;;;;;;96.93;50.28;;;7.80;99.90;;;;;;5013457;28;20771;-65
2023/04/21 05:09:43;;;;;;;99.03;51.07;;;7.60;99.90;;;;;;5013126;28;20466;-63
2023/04/21 05:12:10;;;;;;;110.95;53.67;;;7.40;99.90;;;;;;5013594;28;20416;-63
2023/04/21 05:14:37;;;;;;;107.05;52.38;;;7.40;99.90;;;;;;5013299;28;20421;-64
2023/04/21 05:17:03;;;;;;;98.75;50.08;;;7.40;99.90;;;;;;5013475;28;20409;-65
2023/04/21 05:19:30;;;;;;;88.72;47.80;;;7.50;99.90;;;;;;5014340;28;20973;-62
2023/04/21 05:22:00;;;;;;;80.20;44.47;;;7.70;99.90;;;;;;5014833;28;20470;-64
2023/04/21 05:24:27;;;;;;;74.75;44.13;;;7.90;99.90;;;;;;5012976;28;20455;-65
2023/04/21 05:26:54;;;;;;;72.33;42.47;;;8.00;99.90;;;;;;5012634;28;20468;-64
2023/04/21 05:29:20;;;;;;;71.20;43.90;;;8.10;99.90;;;;;;5020331;28;20427;-62
2023/04/21 05:31:47;;;;;;;74.45;44.15;;;8.10;99.90;;;;;;5014761;28;20417;-63
2023/04/21 05:34:13;;;;;;;77.70;45.23;;;8.00;99.90;;;;;;5013353;28;20412;-64
2023/04/21 05:36:42;;;;;;;80.35;44.33;;;7.90;99.90;;;;;;5012346;28;20420;-64
2023/04/21 05:39:10;;;;;;;90.93;48.17;;;7.90;99.90;;;;;;5013337;28;20412;-62
2023/04/21 05:41:36;;;;;;;105.32;51.78;;;7.70;99.90;;;;;;5013094;28;20803;-63
2023/04/21 05:44:03;;;;;;;111.47;54.25;;;7.50;99.90;;;;;;5013058;28;20421;-64
2023/04/21 05:46:30;;;;;;;115.35;53.72;;;7.60;99.90;;;;;;5012148;28;20425;-63
2023/04/21 05:48:56;;;;;;;101.85;51.70;;;7.60;99.90;;;;;;5016389;28;20482;-64
2023/04/21 05:51:23;;;;;;;89.70;48.13;;;7.80;99.90;;;;;;5016447;28;20423;-64
2023/04/21 05:53:50;;;;;;;86.97;47.75;;;8.00;99.90;;;;;;5012994;28;20412;-63
2023/04/21 05:56:18;;;;;;;89.38;46.38;;;8.00;99.90;;;;;;5003991;28;20423;-62
2023/04/21 05:58:45;;;;;;;84.20;47.60;;;8.00;99.90;;;;;;5021479;28;20415;-64
2023/04/21 06:01:12;;;;;;;81.05;46.60;;;8.10;99.90;;;;;;5011598;28;20823;-66
2023/04/21 06:03:38;;;;;;;;;;;8.30;99.90;;;;;;5013702;28;20431;-65
2023/04/21 06:06:05;;;;;;;;;;;9.80;99.90;;;;;;5015337;28;19976;-65
2023/04/21 06:08:32;;;;;;;;;;;8.50;99.90;;;;;;5013786;28;20108;-65
2023/04/21 06:10:59;;;;;;;68.32;42.53;;;8.60;99.90;;;;;;5018949;28;20439;-65
2023/04/21 06:13:27;;;;;;;;;;;8.60;99.90;;;;;;5014585;28;20455;-63
2023/04/21 06:15:53;;;;;;;;;;;8.70;99.90;;;;;;5009311;28;19931;-65
2023/04/21 06:18:19;;;;;;;;;;;8.60;99.90;;;;;;5018454;28;19921;-64
2023/04/21 06:20:49;;;;;;;;;;;8.60;99.90;;;;;;5017136;28;19921;-66
2023/04/21 06:23:16;;;;;;;;;;;8.70;99.90;;;;;;5016224;28;19921;-63
2023/04/21 06:25:42;;;;;;;;;;;8.80;99.90;;;;;;5013419;28;19922;-65
2023/04/21 06:28:09;;;;;;;;;;;8.90;99.90;;;;;;5015305;28;19921;-64
2023/04/21 06:30:37;;;;;;;;;;;9.00;99.90;;;;;;5013603;28;19929;-66
2023/04/21 06:33:05;;;;;;;;;;;8.90;99.90;;;;;;5013633;28;19921;-64
2023/04/21 06:35:32;;;;;;;;;;;8.80;99.90;;;;;;5012825;28;19928;-63
2023/04/21 06:37:58;;;;;;;;;;;8.60;99.90;;;;;;5013128;28;19975;-64
2023/04/21 06:40:25;;;;;;;;;;;8.60;99.90;;;;;;5013027;28;19967;-65
2023/04/21 06:42:51;;;;;;;;;;;8.60;99.90;;;;;;5013702;28;19927;-66
2023/04/21 06:45:18;;;;;;;;;;;8.60;99.90;;;;;;5013237;28;19988;-63
2023/04/21 06:47:46;;;;;;;;;;;8.60;99.90;;;;;;5013314;28;19921;-64
2023/04/21 06:50:12;;;;;;;;;;;8.60;99.90;;;;;;5017176;28;20016;-64
2023/04/21 06:52:39;;;;;;;;;;;8.60;99.90;;;;;;5014995;28;20439;-65
2023/04/21 06:55:06;;;;;;;;;;;8.70;99.90;;;;;;5012886;28;20000;-66
2023/04/21 06:57:33;;;;;;;;;;;8.80;99.90;;;;;;5012352;28;19925;-65
2023/04/21 06:59:59;;;;;;;;;;;9.00;99.90;;;;;;5013102;28;19922;-65
2023/04/21 07:02:26;;;;;;;;;;;9.00;99.90;;;;;;5011759;28;20012;-67
2023/04/21 07:04:54;;;;;;;;;;;9.20;99.90;;;;;;5015386;28;20394;-64
2023/04/21 07:07:20;;;;;;;;;;;9.10;99.90;;;;;;5013831;28;19952;-65
2023/04/21 07:09:47;;;;;;;;;;;9.30;99.90;;;;;;5012128;28;19976;-63
2023/04/21 07:12:14;;;;;;;;;;;9.30;99.90;;;;;;5012865;28;19926;-66
2023/04/21 07:14:40;;;;;;;;;;;9.30;99.90;;;;;;5012260;28;19925;-65
2023/04/21 07:17:07;;;;;;;;;;;9.30;99.90;;;;;;5012243;28;19944;-64
2023/04/21 07:19:33;;;;;;;;;;;9.40;99.90;;;;;;5014517;28;20344;-67
2023/04/21 07:22:01;;;;;;;;;;;9.40;99.90;;;;;;5015048;28;19975;-67
2023/04/21 07:24:28;;;;;;;;;;;9.40;99.90;;;;;;5012240;28;20347;-64
2023/04/21 07:26:54;;;;;;;;;;;9.40;99.90;;;;;;5012064;28;19925;-67
2023/04/21 07:29:21;;;;;;;;;;;9.50;99.90;;;;;;5012985;28;19922;-67
2023/04/21 07:31:47;;;;;;;;;;;9.50;99.90;;;;;;5015274;28;19968;-66
2023/04/21 07:34:14;;;;;;;;;;;9.60;99.90;;;;;;5012394;28;20349;-66
2023/04/21 07:36:40;;;;;;;;;;;9.90;99.90;;;;;;5011851;28;19971;-64
2023/04/21 07:39:08;;;;;;;;;;;10.00;99.90;;;;;;5012200;28;19922;-63
2023/04/21 07:41:34;;;;;;;;;;;9.90;99.90;;;;;;5012271;28;19921;-64
2023/04/21 07:44:01;;;;;;;;;;;9.90;99.90;;;;;;5012294;28;19921;-65
2023/04/21 07:46:30;;;;;;;;;;;9.90;99.90;;;;;;5011569;28;19925;-63
2023/04/21 07:48:57;;;;;;;;;;;10.00;99.90;;;;;;5017407;28;19929;-65
2023/04/21 07:51:24;;;;;;;;;;;10.10;99.90;;;;;;5013562;28;19977;-62
2023/04/21 07:53:50;;;;;;;;;;;10.10;99.90;;;;;;5014590;28;19975;-63
2023/04/21 07:56:18;;;;;;;;;;;10.20;99.90;;;;;;5011634;28;19967;-65
2023/04/21 07:58:44;;;;;;;;;;;10.30;99.90;;;;;;5008455;28;19922;-65
2023/04/21 08:01:11;;;;;;;;;;;10.20;99.90;;;;;;5015578;28;19921;-64
2023/04/21 08:03:37;;;;;;;;;;;10.10;99.90;;;;;;5012976;28;19952;-64
2023/04/21 08:06:04;;;;;;;;;;;10.40;99.90;;;;;;5011498;28;20296;-64
2023/04/21 08:08:31;;;;;;;;;;;10.50;99.90;;;;;;5016336;28;19925;-63
2023/04/21 08:10:57;;;;;;;;;;;10.50;99.90;;;;;;5012818;28;19975;-63
2023/04/21 08:13:25;;;;;;;;;;;10.60;99.90;;;;;;5012135;28;19925;-64
2023/04/21 08:15:51;;;;;;;;;;;10.70;99.90;;;;;;5011439;28;19921;-64
2023/04/21 08:18:18;;;;;;;;;;;10.90;99.90;;;;;;5013907;28;19921;-62
2023/04/21 08:20:46;;;;;;;;;;;10.80;99.90;;;;;;5016475;28;19928;-63
2023/04/21 08:23:13;;;;;;;;;;;11.80;99.90;;;;;;5019229;28;19933;-64
2023/04/21 08:25:39;;;;;;;;;;;10.90;99.90;;;;;;5015400;28;19968;-65
2023/04/21 08:28:06;;;;;;;;;;;11.00;99.90;;;;;;5017432;28;19987;-64
2023/04/21 08:30:34;;;;;;;;;;;11.00;99.90;;;;;;5014821;28;19956;-65
2023/04/21 08:33:00;;;;;;;;;;;10.90;99.90;;;;;;5014299;28;19925;-66
2023/04/21 08:35:26;;;;;;;;;;;10.90;99.90;;;;;;5015297;28;19922;-64
2023/04/21 08:37:53;;;;;;;;;;;11.00;99.90;;;;;;5014697;28;20430;-66
2023/04/21 08:40:19;;;;;;;;;;;11.10;99.90;;;;;;5016416;28;19921;-64
2023/04/21 08:42:47;;;;;;;;;;;11.00;99.90;;;;;;5015357;28;19964;-65
2023/04/21 08:45:13;;;;;;;;;;;10.90;99.90;;;;;;5015472;28;20307;-65
2023/04/21 08:47:41;;;;;;;;;;;10.80;99.90;;;;;;5015886;28;19976;-64
2023/04/21 08:50:11;;;;;;;;;;;11.00;99.90;;;;;;5014795;28;20412;-63
2023/04/21 08:52:38;;;;;;;;;;;11.10;99.90;;;;;;5015685;28;19941;-63
2023/04/21 08:55:06;;;;;;;;;;;11.10;99.90;;;;;;5015332;28;19922;-65
2023/04/21 08:57:32;;;;;;;;;;;11.10;99.90;;;;;;5016965;28;19931;-65
2023/04/21 08:59:59;;;;;;;;;;;11.00;99.90;;;;;;5016823;28;19922;-63
2023/04/21 09:02:25;;;;;;;;;;;11.10;99.90;;;;;;5020780;28;19925;-65
2023/04/21 09:04:54;;;;;;;;;;;11.20;99.90;;;;;;5017844;28;19921;-63
2023/04/21 09:07:30;;;;;;;;;;;11.10;99.90;;;;;;5013683;28;20001;-65
2023/04/21 09:09:57;;;;;;;;;;;11.00;99.90;;;;;;5015993;28;19921;-64
2023/04/21 09:12:24;;;;;;;;;;;11.10;99.90;;;;;;5015383;28;19925;-63
2023/04/21 09:14:50;;;;;;;;;;;11.30;99.90;;;;;;5014717;28;19990;-64
2023/04/21 09:17:17;;;;;;;;;;;11.50;99.90;;;;;;5016799;28;19925;-65
2023/04/21 09:19:44;;;;;;;;;;;13.20;99.90;;;;;;5018525;28;19925;-63
2023/04/21 09:22:15;;;;;;;;;;;11.40;99.90;;;;;;5015345;28;19922;-64
2023/04/21 09:24:45;;;;;;;;;;;11.40;99.90;;;;;;5014000;28;19926;-64
2023/04/21 09:27:12;;;;;;;;;;;11.40;99.90;;;;;;5011406;28;20242;-66
2023/04/21 09:29:38;;;;;;;;;;;11.40;99.90;;;;;;5017124;28;19921;-65
2023/04/21 09:32:05;;;;;;;;;;;11.40;99.90;;;;;;5015388;28;20344;-64
2023/04/21 09:34:34;;;;;;;;;;;11.50;99.90;;;;;;5017356;28;19984;-66
2023/04/21 09:37:01;;;;;;;;;;;11.40;99.90;;;;;;5014610;28;20423;-66
2023/04/21 09:39:30;;;;;;;;;;;11.30;99.90;;;;;;5013867;28;19921;-66
2023/04/21 09:41:57;;;;;;;;;;;11.10;99.90;;;;;;5014714;28;19921;-65
2023/04/21 09:44:24;;;;;;;;;;;11.10;99.90;;;;;;5014157;28;19928;-67
2023/04/21 09:46:50;;;;;;;;;;;11.20;99.90;;;;;;5014983;28;19921;-64
2023/04/21 09:49:17;;;;;;;;;;;11.20;99.90;;;;;;5016381;28;19927;-66
2023/04/21 09:51:45;;;;;;;;;;;11.20;99.90;;;;;;5017491;28;20051;-65
2023/04/21 09:54:12;;;;;;;;;;;11.40;99.90;;;;;;5015030;28;20339;-65
2023/04/21 09:56:41;;;;;;;;;;;11.30;99.90;;;;;;5013239;28;19980;-65
2023/04/21 09:59:11;;;;;;;;;;;11.50;99.90;;;;;;5014369;28;19971;-65
2023/04/21 10:01:37;;;;;;;;;;;11.50;99.90;;;;;;5010417;28;19968;-66
2023/04/21 10:04:04;;;;;;;;;;;11.50;99.90;;;;;;5014173;28;19945;-65
2023/04/21 10:06:31;;;;;;;;;;;11.50;99.90;;;;;;5013012;28;19926;-63
2023/04/21 10:08:58;;;;;;;;;;;11.60;99.90;;;;;;5013701;28;19921;-63
2023/04/21 10:11:25;;;;;;;;;;;11.60;99.90;;;;;;5013324;28;19955;-62
2023/04/21 10:13:53;;;;;;;;;;;11.50;99.90;;;;;;5013378;28;19921;-63
2023/04/21 10:16:21;;;;;;;;;;;11.50;99.90;;;;;;5013335;28;19921;-63
2023/04/21 10:18:47;;;;;;;;;;;11.40;99.90;;;;;;5009259;28;20304;-64
2023/04/21 10:21:18;;;;;;;;;;;11.60;99.90;;;;;;5016271;28;19929;-62
2023/04/21 10:23:46;;;;;;;;;;;11.60;99.90;;;;;;5012907;28;19921;-61
2023/04/21 10:26:13;;;;;;;;;;;11.60;99.90;;;;;;5012936;28;19936;-63
2023/04/21 10:28:44;;;;;;;;;;;11.70;99.90;;;;;;5017085;28;19929;-62
2023/04/21 10:31:28;;;;;;;;;;;11.80;99.90;;;;;;5014939;28;19921;-64
2023/04/21 10:34:15;;;;;;;;;;;11.90;99.90;;;;;;5010535;28;19926;-62
2023/04/21 10:36:43;;;;;;;;;;;11.90;99.90;;;;;;5007595;28;19925;-63
2023/04/21 10:39:11;;;;;;;;;;;11.90;99.90;;;;;;5013201;28;19954;-62
2023/04/21 10:41:38;;;;;;;;;;;11.90;99.90;;;;;;5012448;28;20296;-65
2023/04/21 10:44:11;;;;;;;;;;;11.90;99.90;;;;;;5012333;28;20347;-66
2023/04/21 10:46:40;;;;;;;;;;;11.90;99.90;;;;;;5015210;28;19928;-62
2023/04/21 10:49:07;;;;;;;;;;;11.90;99.90;;;;;;5017823;28;19921;-62
2023/04/21 10:51:55;;;;;;;;;;;12.00;99.90;;;;;;5015804;28;19970;-65
2023/04/21 10:54:22;;;;;;;;;;;13.60;99.90;;;;;;5011331;28;19928;-63
2023/04/21 10:56:49;;;;;;;;;;;11.80;99.90;;;;;;5012154;28;19921;-65
2023/04/21 10:59:15;;;;;;;;;;;11.80;99.90;;;;;;5012988;28;19926;-64
2023/04/21 11:01:51;;;;;;;;;;;11.80;99.90;;;;;;5079880;28;19936;-63
2023/04/21 11:04:18;;;;;;;;;;;11.90;99.90;;;;;;5058548;28;19925;-65
2023/04/21 11:07:05;;;;;;;;;;;12.10;99.90;;;;;;5059488;28;20391;-63
2023/04/21 11:09:31;;;;;;;;;;;12.10;99.90;;;;;;5059950;28;19960;-63
2023/04/21 11:11:58;;;;;;;;;;;12.20;99.90;;;;;;5059118;28;19928;-64
2023/04/21 11:14:24;;;;;;;;;;;12.40;99.90;;;;;;5059346;28;19925;-64
2023/04/21 11:16:52;;;;;;;;;;;12.60;99.90;;;;;;5062440;28;19982;-62
2023/04/21 11:19:23;;;;;;;33.33;24.35;;;13.00;99.90;;;;;;5062491;28;20828;-65
2023/04/21 11:21:49;;;;;;;32.20;24.05;;;13.40;99.90;;;;;;5071608;28;20556;-64
2023/04/21 11:24:16;;;;;;;31.63;24.08;;;13.60;99.90;;;;;;5064291;28;20804;-63
2023/04/21 11:26:43;;;;;;;;;;;13.50;99.90;;;;;;5059935;28;20411;-63
2023/04/21 11:29:10;;;;;;;;;;;13.50;99.90;;;;;;5058099;28;20379;-64
2023/04/21 11:31:38;;;;;;;;;;;13.40;94.30;;;;;;5055046;28;19928;-63
2023/04/21 11:34:06;;;;;;;;;;;15.70;99.30;;;;;;5061898;28;19921;-62
2023/04/21 11:36:33;;;;;;;;;;;13.90;54.40;;;;;;5061556;28;20014;-61
2023/04/21 11:38:59;;;;;;;;;;;13.80;67.10;;;;;;5048563;28;19920;-61
2023/04/21 11:41:26;;;;;;;;;;;13.90;89.50;;;;;;5048091;28;20370;-62
2023/04/21 11:43:52;;;;;;;;;;;14.00;83.90;;;;;;5048882;28;19925;-63
2023/04/21 11:46:22;;;;;;;;;;;14.20;66.50;;;;;;5047933;28;19921;-62
2023/04/21 11:48:57;;;;;;;;;;;14.40;86.50;;;;;;5052476;28;19966;-62
2023/04/21 11:51:26;;;;;;;;;;;14.60;43.40;;;;;;5067465;28;19990;-64
2023/04/21 11:53:53;;;;;;;;;;;14.50;17.30;;;;;;5058416;28;19925;-65
2023/04/21 11:56:20;;;;;;;;;;;14.40;2.90;;;;;;5060240;28;19920;-62
2023/04/21 11:58:47;;;;;;;;;;;14.50;10.00;;;;;;5056903;28;19921;-63
2023/04/21 12:01:15;;;;;;;;;;;14.20;1.00;;;;;;5072992;28;19921;-64
2023/04/21 12:03:42;;;;;;;;;;;14.10;26.70;;;;;;5077720;28;20019;-64
2023/04/21 12:06:08;;;;;;;25.45;19.85;;;14.10;17.40;;;;;;5079655;28;19978;-61
2023/04/21 12:08:36;;;;;;;25.83;20.23;;;14.00;1.00;;;;;;5079699;28;20478;-64
2023/04/21 12:11:03;;;;;;;27.70;20.65;;;13.80;18.90;;;;;;5073943;28;20468;-63
2023/04/21 12:13:31;;;;;;;25.00;20.40;;;13.70;14.70;;;;;;5063163;28;20458;-61
2023/04/21 12:15:57;;;;;;;26.25;20.67;;;13.90;23.00;;;;;;5063680;28;20411;-65
2023/04/21 12:18:27;;;;;;;26.30;19.90;;;14.00;32.00;;;;;;5061529;28;20417;-64
2023/04/21 12:20:54;;;;;;;25.42;20.58;;;14.20;66.90;;;;;;5070905;28;21069;-64
2023/04/21 12:23:21;;;;;;;27.50;20.88;;;14.30;1.00;;;;;;5064611;28;20465;-66
2023/04/21 12:25:50;;;;;;;28.33;21.45;;;14.10;4.30;;;;;;5063130;28;20415;-67
2023/04/21 12:28:17;;;;;;;;;;;14.30;15.60;;;;;;5061352;28;20508;-65
2023/04/21 12:30:43;;;;;;;;;;;14.30;9.90;;;;;;5064416;28;19970;-67
2023/04/21 12:33:10;;;;;;;;;;;14.30;1.00;;;;;;5067030;28;20413;-65
2023/04/21 12:35:37;;;;;;;;;;;14.40;20.10;;;;;;5075546;28;19924;-64
2023/04/21 12:38:04;;;;;;;;;;;14.60;17.80;;;;;;5063470;28;20068;-65
2023/04/21 12:40:30;;;;;;;;;;;14.80;1.00;;;;;;5061268;28;20337;-65
2023/04/21 12:42:58;;;;;;;;;;;15.00;1.00;;;;;;5062872;28;19920;-64
2023/04/21 12:45:25;;;;;;;26.33;20.50;;;14.90;1.00;;;;;;5062220;28;20485;-64
2023/04/21 12:47:51;;;;;;;25.08;20.23;;;14.90;1.00;;;;;;5067493;28;20446;-65
2023/04/21 12:50:18;;;;;;;24.35;19.98;;;15.00;1.00;;;;;;5074439;28;20489;-64
2023/04/21 12:52:45;;;;;;;26.70;20.40;;;14.90;1.00;;;;;;5072911;28;20419;-65
2023/04/21 12:55:13;;;;;;;;;;;14.90;1.00;;;;;;5062838;28;20805;-65
2023/04/21 12:57:39;;;;;;;;;;;14.90;1.00;;;;;;5064231;28;19920;-64
2023/04/21 13:00:11;;;;;;;;;;;15.00;1.00;;;;;;5053005;28;19924;-65
2023/04/21 13:02:38;;;;;;;;;;;15.10;99.90;;;;;;5053869;28;20467;-63
2023/04/21 13:05:05;;;;;;;;;;;15.00;1.00;;;;;;5053712;28;20347;-63
2023/04/21 13:07:33;;;;;;;;;;;15.30;99.90;;;;;;5064012;28;19928;-63
2023/04/21 13:09:59;;;;;;;;;;;15.30;70.10;;;;;;5067447;28;19975;-63
2023/04/21 13:12:26;;;;;;;;;;;15.30;99.90;;;;;;5063570;28;20424;-65
2023/04/21 13:14:52;;;;;;;;;;;15.30;99.90;;;;;;5064078;28;19924;-65
2023/04/21 13:17:20;;;;;;;;;;;15.30;1.00;;;;;;5052798;28;19920;-63
2023/04/21 13:19:47;;;;;;;;;;;15.70;99.90;;;;;;5063067;28;20382;-65
2023/04/21 13:22:13;;;;;;;;;;;15.10;99.90;;;;;;5073846;28;19920;-62
2023/04/21 13:24:40;;;;;;;17.13;14.23;;;15.20;99.90;;;;;;5062106;28;20422;-62
2023/04/21 13:27:07;;;;;;;15.70;13.15;;;15.30;1.00;;;;;;5064508;28;20409;-61
2023/04/21 13:29:34;;;;;;;16.02;12.65;;;15.10;1.00;;;;;;5056021;28;20478;-59
2023/04/21 13:32:00;;;;;;;18.08;14.13;;;15.20;40.10;;;;;;5059725;28;20417;-60
2023/04/21 13:34:31;;;;;;;17.77;13.75;;;15.20;99.90;;;;;;5063377;28;20419;-62
2023/04/21 13:36:58;;;;;;;16.80;12.90;;;15.30;1.00;;;;;;5069352;28;20419;-63
2023/04/21 13:39:25;;;;;;;17.63;13.15;;;15.40;99.90;;;;;;5065336;28;20416;-62
2023/04/21 13:41:52;;;;;;;15.85;12.95;;;15.40;99.90;;;;;;5072143;28;20470;-62